Main page
METAR-TAF:

METAR-TAF

Airports :

Llano Municipal Airport

Llano, Texas, United States

latitude: 30-47-01N, longitude: 098-39-43W, elevation: 1102 ft

Current weather observation

The report was made 24 minutes ago, at 05:55 UTC
Calm wind
Temperature 55°F
Humidity 72%
Pressure 29.77 in. Hg
Visibility: 10 miles
Clear sky

METAR: KAQO 150555Z AUTO 00000KT 10SM CLR 13/08 A2977 RMK AO2 PWINO

Time: 00:19 (06:19 UTC)


TAF: missing

Weather observations and forecasts of more than 4000 airports (METAR and TAF reports).

The available stations are represented by yellow and red dots on the map.

Hover mouse over dot to see the name of the station.

Then click to see weather observations and forecasts.

To change the map : click on the green buttons with a black cross to zoom in, on the green button with a dash to zoom out, or on the green arrows for adjacent maps.


METAR-TAF: